createdAt,value
2018-06-28T00:01:00.401Z,16.10
2018-06-28T00:03:31.518Z,16.07
2018-06-28T00:06:08.502Z,16.06
2018-06-28T00:08:41.813Z,16.03
2018-06-28T00:11:12.333Z,15.98
2018-06-28T00:13:43.155Z,15.94
2018-06-28T00:16:13.335Z,15.92
2018-06-28T00:18:48.740Z,15.56
2018-06-28T00:21:19.163Z,15.89
2018-06-28T00:23:50.152Z,15.88
2018-06-28T00:26:20.629Z,15.85
2018-06-28T00:28:51.305Z,15.80
2018-06-28T00:31:21.787Z,15.76
2018-06-28T00:33:52.104Z,15.72
2018-06-28T00:36:22.294Z,15.71
2018-06-28T00:38:52.820Z,15.68
2018-06-28T00:41:25.148Z,15.66
2018-06-28T00:43:55.682Z,15.65
2018-06-28T00:46:26.270Z,15.65
2018-06-28T00:48:57.168Z,15.65
2018-06-28T00:51:27.509Z,15.65
2018-06-28T00:53:58.097Z,15.64
2018-06-28T00:56:28.784Z,15.60
2018-06-28T00:58:59.369Z,15.55
2018-06-28T01:01:29.911Z,15.54
2018-06-28T01:04:00.844Z,15.54
2018-06-28T01:06:31.249Z,15.52
2018-06-28T01:09:02.260Z,15.47
2018-06-28T01:11:33.012Z,15.44
2018-06-28T01:14:03.504Z,15.44
2018-06-28T01:16:34.153Z,15.43
2018-06-28T01:19:04.869Z,15.43
2018-06-28T01:21:35.046Z,15.34
2018-06-28T01:24:05.689Z,15.42
2018-06-28T01:26:36.755Z,15.28
2018-06-28T01:29:07.173Z,15.36
2018-06-28T01:31:37.983Z,15.38
2018-06-28T01:34:11.038Z,15.38
2018-06-28T01:36:41.445Z,15.35
2018-06-28T01:39:12.902Z,15.27
2018-06-28T01:41:53.422Z,15.23
2018-06-28T01:44:23.979Z,15.21
2018-06-28T01:46:55.120Z,15.18
2018-06-28T01:49:25.683Z,15.12
2018-06-28T01:51:56.374Z,15.08
2018-06-28T01:54:27.250Z,15.04
2018-06-28T01:56:58.423Z,14.80
2018-06-28T01:59:29.307Z,14.96
2018-06-28T02:02:00.175Z,14.93
2018-06-28T02:04:30.226Z,14.88
2018-06-28T02:07:00.775Z,14.68
2018-06-28T02:09:31.590Z,14.88
2018-06-28T02:12:02.186Z,14.78
2018-06-28T02:14:33.107Z,14.86
2018-06-28T02:17:04.489Z,14.36
2018-06-28T02:19:34.785Z,14.79
2018-06-28T02:22:05.374Z,14.76
2018-06-28T02:24:36.145Z,14.74
2018-06-28T02:27:07.685Z,14.70
2018-06-28T02:29:38.249Z,14.67
2018-06-28T02:32:09.041Z,14.67
2018-06-28T02:34:39.587Z,14.66
2018-06-28T02:37:10.069Z,14.67
2018-06-28T02:39:40.189Z,14.68
2018-06-28T02:42:10.562Z,14.68
2018-06-28T02:44:40.654Z,14.67
2018-06-28T02:47:11.100Z,14.67
2018-06-28T02:49:41.595Z,14.66
2018-06-28T02:52:11.710Z,14.65
2018-06-28T02:54:41.826Z,14.64
2018-06-28T02:57:12.714Z,14.65
2018-06-28T02:59:43.749Z,14.64
2018-06-28T03:02:13.825Z,14.64
2018-06-28T03:04:44.610Z,14.64
2018-06-28T03:07:15.089Z,14.63
2018-06-28T03:09:45.878Z,14.62
2018-06-28T03:12:16.345Z,14.61
2018-06-28T03:14:47.106Z,14.59
2018-06-28T03:17:17.507Z,14.57
2018-06-28T03:19:48.074Z,14.27
2018-06-28T03:22:18.401Z,14.56
2018-06-28T03:24:48.953Z,14.54
2018-06-28T03:27:19.974Z,14.53
2018-06-28T03:29:50.791Z,14.54
2018-06-28T03:32:21.105Z,14.46
2018-06-28T03:34:51.743Z,14.54
2018-06-28T03:37:22.375Z,14.55
2018-06-28T03:39:53.233Z,14.56
2018-06-28T03:42:23.541Z,14.41
2018-06-28T03:44:54.172Z,14.58
2018-06-28T03:47:24.686Z,14.59
2018-06-28T03:49:55.111Z,14.59
2018-06-28T03:52:25.653Z,14.60
2018-06-28T03:54:56.418Z,14.60
2018-06-28T03:57:27.120Z,14.61
2018-06-28T03:59:57.710Z,14.62
2018-06-28T04:02:28.510Z,14.64
2018-06-28T04:04:59.058Z,14.57
2018-06-28T04:07:29.475Z,14.67
2018-06-28T04:09:59.848Z,14.68
2018-06-28T04:12:30.216Z,14.69
2018-06-28T04:15:00.439Z,14.70
2018-06-28T04:17:31.227Z,14.72
2018-06-28T04:20:02.376Z,14.76
2018-06-28T04:22:32.947Z,14.79
2018-06-28T04:25:03.784Z,14.80
2018-06-28T04:27:34.192Z,14.86
2018-06-28T04:30:05.174Z,14.91
2018-06-28T04:32:36.147Z,14.94
2018-06-28T04:35:06.754Z,14.98
2018-06-28T04:37:36.786Z,15.00
2018-06-28T04:40:07.262Z,15.01
2018-06-28T04:42:38.092Z,15.06
2018-06-28T04:45:08.737Z,15.09
2018-06-28T04:47:38.838Z,15.14
2018-06-28T04:50:10.499Z,15.21
2018-06-28T04:52:40.795Z,15.32
2018-06-28T04:55:12.055Z,15.42
2018-06-28T04:57:43.506Z,15.56
2018-06-28T05:00:14.234Z,15.67
2018-06-28T05:02:44.674Z,15.75
2018-06-28T05:05:15.513Z,15.84
2018-06-28T05:07:47.795Z,15.93
2018-06-28T05:10:20.164Z,16.04
2018-06-28T05:12:50.995Z,16.13
2018-06-28T05:15:21.727Z,16.20
2018-06-28T05:17:52.377Z,16.20
2018-06-28T05:20:23.849Z,16.17
2018-06-28T05:22:53.955Z,16.16
2018-06-28T05:25:24.561Z,16.14
2018-06-28T05:27:55.018Z,16.11
2018-06-28T05:30:25.979Z,16.06
2018-06-28T05:32:56.470Z,16.08
2018-06-28T05:35:26.834Z,16.10
2018-06-28T05:37:57.357Z,16.16
2018-06-28T05:40:27.629Z,16.23
2018-06-28T05:42:58.555Z,16.31
2018-06-28T05:45:29.074Z,16.45
2018-06-28T05:48:00.197Z,16.56
2018-06-28T05:50:30.638Z,16.66
2018-06-28T05:53:01.287Z,16.74
2018-06-28T05:55:32.534Z,16.80
2018-06-28T05:58:04.539Z,16.86
2018-06-28T06:00:35.288Z,16.93
2018-06-28T06:03:05.962Z,17.00
2018-06-28T06:05:36.555Z,17.09
2018-06-28T06:08:06.765Z,17.16
2018-06-28T06:10:37.646Z,17.24
2018-06-28T06:13:07.811Z,17.33
2018-06-28T06:15:38.306Z,17.40
2018-06-28T06:18:09.473Z,17.40
2018-06-28T06:20:40.110Z,17.57
2018-06-28T06:23:10.778Z,17.61
2018-06-28T06:25:41.754Z,17.66
2018-06-28T06:28:11.848Z,17.74
2018-06-28T06:30:42.519Z,17.84
2018-06-28T06:33:12.929Z,17.96
2018-06-28T06:35:43.525Z,18.09
2018-06-28T06:38:13.632Z,18.18
2018-06-28T06:40:44.130Z,18.17
2018-06-28T06:43:14.733Z,18.31
2018-06-28T06:45:44.828Z,18.44
2018-06-28T06:48:16.097Z,18.55
2018-06-28T06:50:46.190Z,18.55
2018-06-28T06:53:16.760Z,18.76
2018-06-28T06:55:47.153Z,18.81
2018-06-28T06:58:17.970Z,18.92
2018-06-28T07:00:48.402Z,19.15
2018-06-28T07:03:19.038Z,19.30
2018-06-28T07:05:49.523Z,19.40
2018-06-28T07:08:19.633Z,19.38
2018-06-28T07:10:50.380Z,19.52
2018-06-28T07:13:20.719Z,19.68
2018-06-28T07:15:51.567Z,19.90
2018-06-28T07:18:22.231Z,20.16
2018-06-28T07:20:52.313Z,20.40
2018-06-28T07:23:23.256Z,20.69
2018-06-28T07:25:53.821Z,20.82
2018-06-28T07:28:23.903Z,21.14
2018-06-28T07:30:54.301Z,21.45
2018-06-28T07:33:28.621Z,21.74
2018-06-28T07:35:59.169Z,22.00
2018-06-28T07:38:29.991Z,22.28
2018-06-28T07:41:00.675Z,22.57
2018-06-28T07:43:34.051Z,22.76
2018-06-28T07:46:04.982Z,22.89
2018-06-28T07:48:35.941Z,22.97
2018-06-28T07:51:06.668Z,23.18
2018-06-28T07:53:37.473Z,23.40
2018-06-28T07:56:07.908Z,23.47
2018-06-28T07:58:39.054Z,23.32
2018-06-28T08:01:10.106Z,23.26
2018-06-28T08:03:40.721Z,23.33
2018-06-28T08:06:11.447Z,23.37
2018-06-28T08:08:42.290Z,23.55
2018-06-28T08:11:16.637Z,23.69
2018-06-28T08:13:47.380Z,23.78
2018-06-28T08:16:18.218Z,23.82
2018-06-28T08:18:48.298Z,23.77
2018-06-28T08:21:18.833Z,23.58
2018-06-28T08:23:49.015Z,23.91
2018-06-28T08:26:19.712Z,24.03
2018-06-28T08:28:50.595Z,24.32
2018-06-28T08:31:21.678Z,24.27
2018-06-28T08:33:51.754Z,24.43
2018-06-28T08:36:22.134Z,24.95
2018-06-28T08:38:52.231Z,25.72
2018-06-28T08:41:22.250Z,26.11
2018-06-28T08:43:52.995Z,25.81
2018-06-28T08:46:23.517Z,25.94
2018-06-28T08:48:53.729Z,25.99
2018-06-28T08:51:24.721Z,25.99
2018-06-28T08:53:55.125Z,25.99
2018-06-28T08:56:25.257Z,26.53
2018-06-28T08:58:55.621Z,26.28
2018-06-28T09:01:25.789Z,26.45
2018-06-28T09:03:56.354Z,26.60
2018-06-28T09:06:26.662Z,27.08
2018-06-28T09:08:56.866Z,27.53
2018-06-28T09:11:29.820Z,27.48
2018-06-28T09:14:00.335Z,26.99
2018-06-28T09:16:31.410Z,26.81
2018-06-28T09:19:01.539Z,26.32
2018-06-28T09:21:32.118Z,26.19
2018-06-28T09:24:02.254Z,26.23
2018-06-28T09:26:34.619Z,26.29
2018-06-28T09:29:05.256Z,26.48
2018-06-28T09:31:35.885Z,26.34
2018-06-28T10:18:18.730Z,27.69
2018-06-28T10:20:48.981Z,27.83
2018-06-28T10:23:19.760Z,28.28
2018-06-28T10:25:50.518Z,28.38
2018-06-28T10:28:23.662Z,28.40
2018-06-28T10:32:29.129Z,28.04
2018-06-28T10:34:59.653Z,27.60
2018-06-28T10:37:29.874Z,27.53
2018-06-28T10:40:00.608Z,27.73
2018-06-28T10:42:31.290Z,28.31
2018-06-28T10:45:01.801Z,28.62
2018-06-28T10:47:31.943Z,28.32
2018-06-28T10:51:27.290Z,28.08
2018-06-28T10:53:59.154Z,27.96
2018-06-28T10:56:30.233Z,27.33
2018-06-28T10:59:00.723Z,28.47
2018-06-28T11:01:31.029Z,29.07
2018-06-28T11:04:01.516Z,29.52
2018-06-28T11:06:32.007Z,29.78
2018-06-28T11:09:02.223Z,29.88
2018-06-28T11:11:32.587Z,29.62
2018-06-28T11:14:03.101Z,29.63
2018-06-28T11:16:33.514Z,29.26
2018-06-28T11:19:03.718Z,29.33
2018-06-28T11:21:34.397Z,29.29
2018-06-28T11:24:04.477Z,29.00
2018-06-28T11:26:34.648Z,29.02
2018-06-28T11:29:04.905Z,29.21
2018-06-28T11:31:35.321Z,29.79
2018-06-28T11:34:05.612Z,30.01
2018-06-28T11:36:35.784Z,30.55
2018-06-28T11:39:07.893Z,30.59
2018-06-28T11:41:39.191Z,30.41
2018-06-28T11:44:09.990Z,29.94
2018-06-28T11:46:40.350Z,29.22
2018-06-28T11:49:10.977Z,28.75
2018-06-28T11:51:41.125Z,28.57
2018-06-28T11:54:11.257Z,28.47
2018-06-28T11:56:41.653Z,28.27
2018-06-28T11:59:16.952Z,28.38
2018-06-28T12:01:47.098Z,28.58
2018-06-28T12:04:17.498Z,28.53
2018-06-28T12:06:47.610Z,28.50
2018-06-28T12:09:17.990Z,27.87
2018-06-28T12:11:48.610Z,28.88
2018-06-28T12:14:18.861Z,29.22
2018-06-28T12:16:49.749Z,29.24
2018-06-28T12:19:20.829Z,29.24
2018-06-28T12:21:51.002Z,28.89
2018-06-28T12:24:21.517Z,28.46
2018-06-28T12:26:52.036Z,27.86
2018-06-28T12:29:22.197Z,27.64
2018-06-28T12:31:56.385Z,27.46
2018-06-28T12:34:31.113Z,27.45
2018-06-28T12:37:01.233Z,27.65
2018-06-28T12:39:32.063Z,28.27
2018-06-28T12:42:02.449Z,28.94
2018-06-28T12:44:32.598Z,29.18
2018-06-28T12:47:39.997Z,29.39
2018-06-28T12:50:10.129Z,29.00
2018-06-28T12:52:47.309Z,28.59
2018-06-28T12:55:18.526Z,28.47
2018-06-28T12:57:49.424Z,28.65
2018-06-28T13:00:19.944Z,28.28
2018-06-28T13:02:50.487Z,28.21
2018-06-28T13:05:20.988Z,28.18
2018-06-28T13:07:51.092Z,27.96
2018-06-28T13:10:21.273Z,27.41
2018-06-28T13:12:51.809Z,27.62
2018-06-28T13:15:22.946Z,27.24
2018-06-28T13:17:53.810Z,26.72
2018-06-28T13:20:24.234Z,27.55
2018-06-28T13:22:54.448Z,27.60
2018-06-28T13:25:24.639Z,28.13
2018-06-28T13:27:55.115Z,28.50
2018-06-28T13:30:25.366Z,29.02
2018-06-28T13:32:55.528Z,29.62
2018-06-28T13:35:25.990Z,29.58
2018-06-28T13:37:56.118Z,29.30
2018-06-28T13:40:26.277Z,28.86
2018-06-28T13:42:56.802Z,28.49
2018-06-28T13:45:30.563Z,27.94
2018-06-28T13:48:00.997Z,27.75
2018-06-28T13:50:31.837Z,27.40
2018-06-28T13:53:02.430Z,27.55
2018-06-28T13:55:32.955Z,27.49
2018-06-28T13:58:03.626Z,27.05
2018-06-28T14:00:33.858Z,27.39
2018-06-28T14:03:04.555Z,27.20
2018-06-28T14:05:34.725Z,27.42
2018-06-28T14:08:04.957Z,27.40
2018-06-28T14:10:35.351Z,27.41
2018-06-28T14:13:05.480Z,27.26
2018-06-28T14:15:36.146Z,27.34
2018-06-28T14:18:06.561Z,27.26
2018-06-28T14:20:37.707Z,27.16
2018-06-28T14:23:08.476Z,27.08
2018-06-28T14:25:38.842Z,27.03
2018-06-28T14:28:09.091Z,26.95
2018-06-28T14:30:39.137Z,26.89
2018-06-28T14:33:09.525Z,26.84
2018-06-28T14:35:39.638Z,26.78
2018-06-28T14:38:09.729Z,26.74
2018-06-28T14:40:42.283Z,26.72
2018-06-28T14:43:12.391Z,26.74
2018-06-28T14:45:42.502Z,26.68
2018-06-28T14:48:12.858Z,26.76
2018-06-28T14:50:42.898Z,26.79
2018-06-28T14:53:13.061Z,26.81
2018-06-28T14:55:43.453Z,26.76
2018-06-28T14:58:13.783Z,26.56
2018-06-28T15:00:44.297Z,26.64
2018-06-28T15:03:14.693Z,26.61
2018-06-28T15:05:48.086Z,26.55
2018-06-28T15:08:18.501Z,26.48
2018-06-28T15:10:48.603Z,26.29
2018-06-28T15:13:18.699Z,26.35
2018-06-28T15:15:50.614Z,26.28
2018-06-28T15:18:21.718Z,26.20
2018-06-28T15:20:51.822Z,26.15
2018-06-28T15:23:22.230Z,26.14
2018-06-28T15:25:52.323Z,26.16
2018-06-28T15:28:22.465Z,26.15
2018-06-28T15:30:53.607Z,26.15
2018-06-28T15:33:23.813Z,26.14
2018-06-28T15:36:01.362Z,26.15
2018-06-28T15:38:32.727Z,26.16
2018-06-28T15:41:03.404Z,26.19
2018-06-28T15:43:33.469Z,26.20
2018-06-28T15:46:04.529Z,26.23
2018-06-28T15:48:35.109Z,26.23
2018-06-28T15:51:05.269Z,26.18
2018-06-28T15:53:35.677Z,25.99
2018-06-28T15:56:06.081Z,25.83
2018-06-28T15:58:39.693Z,25.70
2018-06-28T16:01:10.049Z,25.59
2018-06-28T16:03:40.132Z,25.53
2018-06-28T16:06:10.321Z,25.53
2018-06-28T16:08:41.088Z,25.55
2018-06-28T16:11:11.269Z,25.59
2018-06-28T16:13:41.380Z,25.58
2018-06-28T16:16:12.727Z,25.67
2018-06-28T16:18:42.945Z,25.70
2018-06-28T16:21:14.941Z,25.49
2018-06-28T16:23:44.982Z,25.55
2018-06-28T16:26:15.393Z,25.65
2018-06-28T16:28:45.529Z,25.65
2018-06-28T16:31:15.650Z,25.63
2018-06-28T16:33:46.249Z,25.62
2018-06-28T16:36:16.417Z,25.61
2018-06-28T16:38:51.530Z,25.61
2018-06-28T16:41:22.157Z,25.62
2018-06-28T16:43:52.598Z,25.61
2018-06-28T16:46:22.761Z,25.63
2018-06-28T16:48:53.131Z,25.63
2018-06-28T16:51:23.919Z,25.61
2018-06-28T16:53:54.090Z,25.59
2018-06-28T16:56:24.949Z,25.53
2018-06-28T16:58:55.098Z,25.48
2018-06-28T17:01:25.177Z,25.32
2018-06-28T17:03:55.991Z,25.43
2018-06-28T17:06:26.221Z,25.39
2018-06-28T17:08:56.761Z,25.36
2018-06-28T17:11:27.122Z,25.32
2018-06-28T17:13:57.243Z,25.30
2018-06-28T17:16:27.399Z,25.27
2018-06-28T17:18:57.949Z,25.24
2018-06-28T17:21:28.174Z,25.18
2018-06-28T17:23:58.289Z,25.27
2018-06-28T17:26:28.694Z,25.29
2018-06-28T17:28:58.826Z,25.32
2018-06-28T17:31:28.932Z,25.35
2018-06-28T17:33:59.322Z,25.34
2018-06-28T17:36:29.526Z,25.34
2018-06-28T17:39:00.284Z,25.30
2018-06-28T17:41:30.879Z,25.34
2018-06-28T17:44:01.234Z,25.19
2018-06-28T17:46:31.619Z,25.14
2018-06-28T17:49:01.870Z,25.32
2018-06-28T17:51:32.533Z,25.32
2018-06-28T17:54:02.686Z,25.29
2018-06-28T17:56:32.941Z,25.26
2018-06-28T17:59:03.409Z,25.21
2018-06-28T18:01:33.520Z,25.18
2018-06-28T18:04:03.789Z,25.13
2018-06-28T18:06:34.385Z,25.00
2018-06-28T18:09:05.146Z,25.08
2018-06-28T18:11:35.257Z,24.93
2018-06-28T18:14:06.050Z,24.48
2018-06-28T18:16:36.445Z,25.00
2018-06-28T18:19:06.550Z,24.95
2018-06-28T18:21:36.919Z,24.84
2018-06-28T18:24:07.678Z,24.86
2018-06-28T18:26:37.854Z,24.76
2018-06-28T18:29:08.238Z,24.80
2018-06-28T18:31:38.302Z,24.79
2018-06-28T18:34:08.562Z,24.58
2018-06-28T18:36:39.149Z,24.75
2018-06-28T18:39:10.944Z,24.71
2018-06-28T18:41:41.345Z,24.68
2018-06-28T18:44:11.858Z,24.63
2018-06-28T18:46:41.982Z,24.61
2018-06-28T18:49:12.805Z,24.58
2018-06-28T18:51:43.251Z,24.55
2018-06-28T18:54:13.445Z,24.50
2018-06-28T18:56:43.727Z,23.95
2018-06-28T18:59:14.273Z,24.43
2018-06-28T19:01:44.508Z,24.40
2018-06-28T19:04:14.712Z,24.37
2018-06-28T19:06:45.098Z,24.34
2018-06-28T19:09:15.733Z,24.30
2018-06-28T19:11:46.149Z,24.27
2018-06-28T19:14:21.576Z,24.23
2018-06-28T19:16:56.406Z,24.18
2018-06-28T19:19:26.936Z,24.14
2018-06-28T19:22:02.187Z,23.91
2018-06-28T19:24:32.758Z,24.08
2018-06-28T19:27:03.513Z,24.05
2018-06-28T19:29:38.436Z,24.02
2018-06-28T19:32:13.837Z,23.98
2018-06-28T19:34:43.964Z,23.97
2018-06-28T19:37:19.617Z,23.95
2018-06-28T19:39:55.198Z,23.92
2018-06-28T19:42:30.609Z,23.90
2018-06-28T19:45:00.827Z,23.87
2018-06-28T19:47:31.009Z,23.83
2018-06-28T19:50:06.345Z,23.80
2018-06-28T19:53:39.929Z,23.78
2018-06-28T19:56:10.341Z,23.71
2018-06-28T19:58:40.515Z,23.66
2018-06-28T20:01:15.687Z,23.59
2018-06-28T20:03:50.841Z,23.46
2018-06-28T20:06:21.021Z,23.47
2018-06-28T20:08:55.302Z,23.42
2018-06-28T20:11:25.698Z,23.40
2018-06-28T20:14:00.630Z,23.38
2018-06-28T20:16:35.581Z,23.23
2018-06-28T20:19:11.024Z,23.37
2018-06-28T20:21:41.143Z,23.28
2018-06-28T20:24:11.571Z,23.34
2018-06-28T20:26:46.521Z,23.32
2018-06-28T20:29:21.882Z,23.27
2018-06-28T20:31:56.876Z,23.23
2018-06-28T20:34:27.197Z,23.14
2018-06-28T20:36:57.366Z,23.06
2018-06-28T20:39:27.458Z,23.17
2018-06-28T20:41:57.955Z,23.06
2018-06-28T20:44:28.012Z,23.09
2018-06-28T20:46:58.553Z,23.05
2018-06-28T20:49:28.881Z,23.02
2018-06-28T20:51:58.953Z,23.01
2018-06-28T20:54:29.040Z,22.78
2018-06-28T20:57:00.054Z,22.96
2018-06-28T20:59:30.512Z,22.87
2018-06-28T21:02:01.034Z,22.91
2018-06-28T21:04:31.174Z,22.90
2018-06-28T21:07:02.152Z,22.87
2018-06-28T21:09:32.225Z,22.82
2018-06-28T21:12:02.541Z,22.79
2018-06-28T21:14:32.921Z,22.74
2018-06-28T21:17:03.091Z,22.70
2018-06-28T21:19:33.649Z,22.52
2018-06-28T21:22:04.022Z,22.49
2018-06-28T21:24:34.056Z,22.61
2018-06-28T21:27:04.195Z,22.61
2018-06-28T21:29:34.729Z,22.61
2018-06-28T21:32:05.286Z,22.61
2018-06-28T21:34:36.806Z,22.60
2018-06-28T21:37:07.289Z,22.58
2018-06-28T21:39:37.713Z,22.55
2018-06-28T21:42:07.982Z,22.36
2018-06-28T21:44:38.357Z,22.46
2018-06-28T21:47:08.870Z,22.41
2018-06-28T21:49:38.933Z,22.37
2018-06-28T21:52:09.281Z,22.34
2018-06-28T21:54:40.233Z,22.24
2018-06-28T21:57:10.421Z,22.30
2018-06-28T21:59:41.064Z,22.26
2018-06-28T22:02:11.678Z,22.26
2018-06-28T22:04:41.721Z,22.24
2018-06-28T22:07:12.466Z,22.19
2018-06-28T22:09:42.549Z,22.14
2018-06-28T22:12:12.652Z,22.12
2018-06-28T22:14:42.997Z,22.10
2018-06-28T22:17:13.132Z,22.09
2018-06-28T22:19:43.198Z,21.93
2018-06-28T22:22:13.861Z,22.07
2018-06-28T22:24:44.957Z,21.10
2018-06-28T22:27:15.019Z,21.95
2018-06-28T22:29:45.829Z,22.02
2018-06-28T22:32:16.406Z,21.78
2018-06-28T22:34:46.502Z,21.97
2018-06-28T22:37:16.962Z,21.88
2018-06-28T22:39:47.492Z,21.94
2018-06-28T22:42:18.107Z,21.92
2018-06-28T22:44:49.201Z,21.90
2018-06-28T22:47:19.652Z,21.88
2018-06-28T22:49:50.030Z,21.89
2018-06-28T22:52:20.462Z,21.91
2018-06-28T22:54:50.880Z,21.92
2018-06-28T22:57:21.377Z,21.83
2018-06-28T22:59:52.669Z,21.90
2018-06-28T23:02:23.113Z,21.86
2018-06-28T23:04:54.165Z,21.85
2018-06-28T23:07:25.316Z,21.84
2018-06-28T23:09:56.341Z,21.83
2018-06-28T23:12:27.387Z,21.82
2018-06-28T23:14:57.847Z,21.58
2018-06-28T23:17:28.633Z,21.74
2018-06-28T23:19:59.283Z,21.72
2018-06-28T23:22:56.863Z,21.69
2018-06-28T23:25:27.765Z,21.65
2018-06-28T23:27:58.301Z,21.65
2018-06-28T23:30:28.862Z,21.64
2018-06-28T23:32:59.586Z,21.62
2018-06-28T23:35:30.265Z,21.59
2018-06-28T23:38:00.828Z,21.47
2018-06-28T23:40:31.233Z,21.37
2018-06-28T23:43:01.721Z,21.49
2018-06-28T23:45:32.231Z,21.48
2018-06-28T23:48:02.665Z,21.45
2018-06-28T23:50:33.049Z,21.44
2018-06-28T23:53:03.134Z,21.42
2018-06-28T23:55:33.462Z,21.40
2018-06-28T23:58:03.645Z,21.38
